Time;durP1;ratioP1;P1;durP2;ratioP2;P2;SDS_P1;SDS_P2;PMS_P1;PMS_P2;Temp;Humidity;BMP_temperature;BMP_pressure;BME280_temperature;BME280_humidity;BME280_pressure;Samples;Min_cycle;Max_cycle;Signal;HPM_P1;HPM_P2
2024/04/17 06:08:32;;;;;;;5.57;1.40;;;;;;;;;;13436031;22;20001;-84
2024/04/17 06:13:36;;;;;;;5.97;1.45;;;;;;;;;;13433781;22;19997;-83
2024/04/17 06:18:38;;;;;;;5.22;1.75;;;;;;;;;;13433337;22;20410;-84
2024/04/17 06:29:06;;;;;;;4.15;1.95;;;;;;;;;;13421593;22;20005;-86
2024/04/17 06:34:07;;;;;;;4.07;1.95;;;;;;;;;;13419653;22;20005;-87
2024/04/17 06:56:00;;;;;;;3.90;1.77;;;;;;;;;;13511769;22;19989;-86
2024/04/17 07:01:28;;;;;;;2.83;1.53;;;;;;;;;;13521719;22;20097;-86
2024/04/17 07:06:36;;;;;;;3.33;1.30;;;;;;;;;;13519310;21;20412;-85
2024/04/17 07:11:39;;;;;;;3.60;1.05;;;;;;;;;;13546752;22;20004;-84
2024/04/17 07:16:41;;;;;;;;;;;;;;;;;;13555272;21;19986;-84
2024/04/17 07:33:26;;;;;;;2.20;1.17;;;;;;;;;;13246550;21;20388;-82
2024/04/17 07:38:28;;;;;;;2.58;0.90;;;;;;;;;;13856352;21;19999;-81
2024/04/17 07:43:31;;;;;;;4.25;1.20;;;;;;;;;;13852788;21;20414;-83
2024/04/17 07:48:33;;;;;;;1.75;0.80;;;;;;;;;;13850290;21;19994;-83
2024/04/17 07:53:34;;;;;;;2.08;1.10;;;;;;;;;;13853764;21;20006;-83
2024/04/17 07:58:35;;;;;;;2.20;1.00;;;;;;;;;;13855897;21;20006;-82
2024/04/17 08:03:36;;;;;;;5.18;3.60;;;;;;;;;;13845940;21;19991;-84
2024/04/17 08:08:37;;;;;;;1.63;0.95;;;;;;;;;;13855436;21;20023;-83
2024/04/17 08:13:39;;;;;;;1.92;0.95;;;;;;;;;;13875713;21;20009;-83
2024/04/17 08:18:40;;;;;;;1.60;0.70;;;;;;;;;;13876219;21;19998;-83
2024/04/17 08:23:41;;;;;;;1.27;0.77;;;;;;;;;;13881538;21;20003;-83
2024/04/17 08:28:43;;;;;;;;;;;;;;;;;;13868342;21;20007;-83
2024/04/17 08:33:44;;;;;;;1.92;0.70;;;;;;;;;;13874182;21;19926;-83
2024/04/17 08:38:45;;;;;;;2.33;0.77;;;;;;;;;;13848289;21;20040;-83
2024/04/17 08:43:47;;;;;;;2.33;0.80;;;;;;;;;;13853186;21;20300;-83
2024/04/17 08:48:48;;;;;;;2.53;0.98;;;;;;;;;;13850922;21;20314;-84
2024/04/17 08:53:50;;;;;;;1.70;0.70;;;;;;;;;;13849268;21;19995;-83
2024/04/17 08:58:53;;;;;;;2.45;0.57;;;;;;;;;;13852111;21;20001;-84
2024/04/17 09:03:54;;;;;;;4.82;0.90;;;;;;;;;;13857460;21;19995;-83
2024/04/17 09:08:56;;;;;;;1.55;0.70;;;;;;;;;;13859854;21;19999;-82
2024/04/17 09:13:57;;;;;;;1.35;0.50;;;;;;;;;;13860981;21;20005;-83
2024/04/17 09:18:58;;;;;;;1.30;0.40;;;;;;;;;;13879341;21;19986;-81
2024/04/17 09:23:59;;;;;;;0.65;0.40;;;;;;;;;;13862282;21;20027;-83
2024/04/17 09:29:00;;;;;;;1.58;0.50;;;;;;;;;;13853239;21;19995;-85
2024/04/17 09:34:02;;;;;;;1.23;0.50;;;;;;;;;;13857070;21;20335;-85
2024/04/17 09:39:12;;;;;;;3.30;0.40;;;;;;;;;;13857332;21;20042;-85
2024/04/17 09:44:14;;;;;;;1.80;0.88;;;;;;;;;;13853977;21;20006;-85
2024/04/17 09:49:26;;;;;;;1.17;0.80;;;;;;;;;;13863299;21;20002;-86
2024/04/17 09:54:27;;;;;;;1.02;0.35;;;;;;;;;;13865752;21;20002;-86
2024/04/17 09:59:28;;;;;;;1.90;0.63;;;;;;;;;;13858189;21;19995;-86
2024/04/17 10:04:30;;;;;;;2.33;0.82;;;;;;;;;;13873151;21;19995;-84
2024/04/17 10:09:32;;;;;;;1.42;0.60;;;;;;;;;;13854453;21;19991;-86
2024/04/17 10:14:34;;;;;;;3.63;0.77;;;;;;;;;;13851327;21;19991;-85
2024/04/17 10:19:35;;;;;;;2.88;1.10;;;;;;;;;;13852268;21;20034;-85
2024/04/17 10:24:36;;;;;;;1.42;0.60;;;;;;;;;;13854818;21;20333;-86
2024/04/17 10:29:42;;;;;;;2.60;0.95;;;;;;;;;;13859122;21;20037;-84
2024/04/17 10:34:45;;;;;;;0.90;0.50;;;;;;;;;;13861109;21;20060;-84
2024/04/17 10:39:47;;;;;;;2.03;0.70;;;;;;;;;;13858129;21;19991;-84
2024/04/17 10:44:52;;;;;;;1.20;0.70;;;;;;;;;;13855314;21;19991;-85
2024/04/17 10:49:59;;;;;;;3.40;0.80;;;;;;;;;;13857347;21;20094;-84
2024/04/17 10:55:01;;;;;;;2.95;0.90;;;;;;;;;;13855726;21;20022;-85
2024/04/17 11:00:03;;;;;;;4.47;0.80;;;;;;;;;;13855093;21;19995;-86
2024/04/17 11:05:04;;;;;;;2.30;0.73;;;;;;;;;;13857381;21;20003;-86
2024/04/17 11:10:11;;;;;;;3.45;0.70;;;;;;;;;;13853916;21;20060;-85
2024/04/17 11:15:13;;;;;;;1.73;0.70;;;;;;;;;;13850501;21;20023;-84
2024/04/17 11:20:14;;;;;;;3.35;0.88;;;;;;;;;;13857157;21;19995;-86
2024/04/17 11:25:15;;;;;;;2.30;1.05;;;;;;;;;;13854093;21;20027;-84
2024/04/17 11:30:17;;;;;;;2.63;0.95;;;;;;;;;;13856462;21;19995;-86
2024/04/17 11:35:19;;;;;;;2.97;1.33;;;;;;;;;;13857361;21;20002;-84
2024/04/17 11:40:20;;;;;;;2.17;0.90;;;;;;;;;;13856449;21;20457;-85
2024/04/17 11:45:21;;;;;;;2.88;1.23;;;;;;;;;;13857504;21;20413;-84
2024/04/17 11:50:22;;;;;;;2.78;0.90;;;;;;;;;;13864986;21;20085;-84
2024/04/17 11:55:23;;;;;;;2.60;1.05;;;;;;;;;;13872115;21;19987;-83
2024/04/17 12:00:24;;;;;;;4.30;1.50;;;;;;;;;;13884094;21;19987;-83
2024/04/17 12:05:26;;;;;;;1.88;1.00;;;;;;;;;;13881354;21;20011;-82
2024/04/17 12:10:27;;;;;;;3.53;1.20;;;;;;;;;;13880692;21;19987;-82
2024/04/17 12:15:28;;;;;;;3.13;1.10;;;;;;;;;;13883943;21;19994;-82
2024/04/17 12:20:29;;;;;;;2.88;1.42;;;;;;;;;;13880005;21;20011;-82
2024/04/17 12:30:50;;;;;;;1.80;1.00;;;;;;;;;;13884135;21;20015;-82
2024/04/17 12:35:53;;;;;;;2.90;0.80;;;;;;;;;;13859069;21;19990;-84
2024/04/17 12:40:54;;;;;;;5.20;1.50;;;;;;;;;;13855703;21;19991;-82
2024/04/17 12:45:55;;;;;;;3.30;1.33;;;;;;;;;;13848360;21;19995;-82
2024/04/17 12:50:56;;;;;;;3.38;1.23;;;;;;;;;;13852277;21;19995;-83
2024/04/17 12:55:58;;;;;;;3.20;1.20;;;;;;;;;;13852760;21;19991;-82
2024/04/17 13:01:03;;;;;;;3.22;1.38;;;;;;;;;;13849646;21;20310;-83
2024/04/17 13:06:05;;;;;;;3.58;1.13;;;;;;;;;;13854030;21;19995;-84
2024/04/17 13:11:06;;;;;;;2.47;0.82;;;;;;;;;;13861341;21;20003;-82
2024/04/17 13:16:07;;;;;;;2.17;0.88;;;;;;;;;;13880536;21;19995;-81
2024/04/17 13:21:08;;;;;;;2.33;0.93;;;;;;;;;;13849530;21;20376;-83
2024/04/17 13:26:09;;;;;;;2.92;0.70;;;;;;;;;;13850425;21;20064;-83
2024/04/17 13:31:10;;;;;;;2.55;0.70;;;;;;;;;;13846863;21;20002;-83
2024/04/17 13:36:30;;;;;;;3.00;1.52;;;;;;;;;;13786964;21;20527;-83
2024/04/17 13:42:02;;;;;;;3.50;1.17;;;;;;;;;;13734800;21;19995;-84
2024/04/17 13:52:47;;;;;;;1.77;0.90;;;;;;;;;;13742772;21;19987;-85
2024/04/17 13:58:29;;;;;;;2.90;1.27;;;;;;;;;;13739202;21;19991;-84
2024/04/17 14:03:51;;;;;;;4.32;0.65;;;;;;;;;;13711958;21;19988;-82
2024/04/17 14:08:52;;;;;;;1.73;0.77;;;;;;;;;;13738248;21;20024;-83
2024/04/17 14:13:53;;;;;;;2.28;0.70;;;;;;;;;;13737587;21;20012;-84
2024/04/17 14:19:02;;;;;;;2.53;0.80;;;;;;;;;;13742507;21;20027;-84
2024/04/17 14:24:03;;;;;;;3.00;0.70;;;;;;;;;;13744242;21;20006;-83
2024/04/17 14:29:05;;;;;;;2.75;0.70;;;;;;;;;;13740037;21;20427;-83
2024/04/17 14:34:31;;;;;;;1.48;0.70;;;;;;;;;;13741616;21;19992;-83
2024/04/17 14:39:41;;;;;;;1.02;0.50;;;;;;;;;;13860047;21;20003;-85
2024/04/17 14:45:19;;;;;;;2.08;0.77;;;;;;;;;;13856708;21;20041;-83
2024/04/17 14:50:22;;;;;;;1.60;0.68;;;;;;;;;;13848406;21;19995;-82
2024/04/17 14:55:23;;;;;;;3.72;0.85;;;;;;;;;;13843631;21;20029;-82
2024/04/17 15:00:44;;;;;;;2.95;0.90;;;;;;;;;;13844627;21;19997;-82
2024/04/17 15:05:46;;;;;;;2.78;0.90;;;;;;;;;;13847076;21;20029;-83
2024/04/17 15:10:52;;;;;;;2.00;0.60;;;;;;;;;;13810849;21;20397;-82
2024/04/17 15:15:56;;;;;;;1.20;0.63;;;;;;;;;;13866414;21;19991;-80
2024/04/17 15:21:00;;;;;;;5.03;0.70;;;;;;;;;;13856110;21;19994;-81
2024/04/17 15:26:06;;;;;;;2.28;0.70;;;;;;;;;;13795906;21;20027;-81
2024/04/17 15:31:08;;;;;;;1.73;0.60;;;;;;;;;;13847868;21;19991;-80
2024/04/17 15:36:09;;;;;;;3.05;0.60;;;;;;;;;;13844568;21;20090;-81
2024/04/17 15:41:16;;;;;;;1.95;0.70;;;;;;;;;;13845685;21;20006;-81
2024/04/17 15:46:27;;;;;;;1.77;1.10;;;;;;;;;;13843536;21;20019;-85
2024/04/17 15:51:56;;;;;;;2.08;0.80;;;;;;;;;;13798629;21;19995;-84
2024/04/17 15:57:10;;;;;;;1.45;0.68;;;;;;;;;;13849876;21;20002;-84
2024/04/17 16:13:39;;;;;;;1.40;0.80;;;;;;;;;;13863673;21;19983;-84
2024/04/17 16:18:59;;;;;;;2.17;0.60;;;;;;;;;;13814429;21;19999;-84
2024/04/17 16:24:13;;;;;;;1.63;0.70;;;;;;;;;;13801061;21;19989;-84
2024/04/17 16:29:23;;;;;;;1.48;0.65;;;;;;;;;;13807967;21;20017;-83
2024/04/17 16:52:06;;;;;;;1.65;0.90;;;;;;;;;;13851752;21;20015;-85
2024/04/17 16:57:08;;;;;;;2.40;1.10;;;;;;;;;;13852914;21;20001;-85
2024/04/17 17:02:43;;;;;;;2.13;1.27;;;;;;;;;;13805067;21;19999;-84
2024/04/17 17:42:34;;;;;;;1.08;0.70;;;;;;;;;;13849833;21;19987;-88
2024/04/17 18:39:29;;;;;;;0.60;0.50;;;;;;;;;;14005394;21;19992;-85
